Terminal Aerodrome Forecast
Issued by NWS Wilmington, OH

Current Version | Previous Version | Graphics & Text | Print | Product List | Glossary On
Versions: 1 2 3 4 5 6 7 8 9 10 11 12 13 14 15 16 17 18 19 20 21 22 23 24 25 26 27
000
FTUS41 KILN 011559 AAB
TAFILN
TAF AMD
KILN 011559Z 0116/0212 22006KT P6SM BKN035
     FM011800 27005KT P6SM VCSH SCT025 BKN040
      TEMPO 0119/0122 5SM -SHRA
     FM012300 VRB03KT P6SM SCT050 BKN080
     FM020200 VRB03KT P6SM VCSH BKN040
     FM021100 33005KT P6SM BKN025=

USA.gov is the U.S. government's official web portal to all federal, state and local government web resources and services.